Private Wetterstation Nrnberg - Katzwang
Wetterdaten: Oktober 2013
Datum Temp. A. Feuchte A. Luftdruck Regen Wind Richtung Taupunkt Windchill Windben
02.10.2013 8,1 C 66 % 1019 hPa 0,0 l/m 4,8 km/h O 1,8 C 6,8 C 8,0 km/h
03.10.2013 7,5 C 64 % 1020 hPa 0,0 l/m 4,3 km/h O 0,5 C 6,4 C 8,9 km/h
04.10.2013 9,1 C 72 % 1019 hPa 0,0 l/m 4,1 km/h O 4,2 C 8,3 C 5,1 km/h
05.10.2013 8,9 C 82 % 1015 hPa 8,3 l/m 1,4 km/h NO 5,9 C 8,9 C 2,3 km/h
06.10.2013 10,8 C 83 % 1022 hPa 0,5 l/m 1,2 km/h N-NO 8,1 C 10,8 C 2,2 km/h
07.10.2013 12,5 C 75 % 1023 hPa 0,0 l/m 0,5 km/h NO 8,0 C 12,5 C 1,5 km/h
08.10.2013 11,0 C 78 % 1021 hPa 0,0 l/m 1,9 km/h NO 7,2 C 10,9 C 2,9 km/h
09.10.2013 12,5 C 79 % 1015 hPa 0,0 l/m 1,4 km/h N-NO 8,9 C 12,5 C 2,3 km/h
10.10.2013 8,0 C 84 % 1006 hPa 9,3 l/m 2,3 km/h N 5,4 C 8,0 C 3,3 km/h
11.10.2013 5,6 C 84 % 1012 hPa 2,6 l/m 0,0 km/h O 3,1 C 5,6 C 1,0 km/h
12.10.2013 5,6 C 83 % 1014 hPa 0,0 l/m 1,7 km/h N-NO 2,9 C 5,5 C 2,7 km/h
13.10.2013 7,4 C 78 % 1017 hPa 0,0 l/m 4,6 km/h O-NO 3,6 C 7,4 C 5,6 km/h
14.10.2013 10,3 C 82 % 1015 hPa 0,5 l/m 2,0 km/h NO 7,2 C 10,2 C 3,1 km/h
15.10.2013 9,6 C 84 % 1008 hPa 8,3 l/m 4,3 km/h W-NW 7,0 C 8,7 C 7,3 km/h
16.10.2013 8,3 C 83 % 1012 hPa 5,2 l/m 0,0 km/h W-NW 5,6 C 8,3 C 1,0 km/h
17.10.2013 12,2 C 78 % 1013 hPa 1,0 l/m 7,9 km/h W-NW 8,4 C 11,0 C 13,6 km/h
18.10.2013 10,7 C 77 % 1017 hPa 0,0 l/m 1,2 km/h W-NW 6,7 C 10,7 C 2,2 km/h
19.10.2013 10,2 C 78 % 1014 hPa 0,0 l/m 1,7 km/h NO 6,4 C 10,2 C 2,7 km/h
20.10.2013 13,1 C 83 % 1014 hPa 6,2 l/m 4,3 km/h O-NO 10,3 C 13,1 C 5,3 km/h
21.10.2013 14,0 C 79 % 1015 hPa 0,0 l/m 2,4 km/h N-NO 10,4 C 14,0 C 3,4 km/h
22.10.2013 14,6 C 78 % 1009 hPa 0,0 l/m 6,2 km/h O-NO 10,7 C 13,1 C 7,2 km/h
23.10.2013 12,7 C 83 % 1011 hPa 1,0 l/m 3,5 km/h NO 9,9 C 12,3 C 4,5 km/h
24.10.2013 12,1 C 81 % 1017 hPa 0,5 l/m 2,8 km/h N-NO 8,8 C 12,1 C 3,8 km/h
25.10.2013 11,5 C 81 % 1015 hPa 0,0 l/m 2,6 km/h NO 8,3 C 11,0 C 3,6 km/h
26.10.2013 14,6 C 78 % 1014 hPa 0,0 l/m 4,3 km/h NO 10,6 C 13,9 C 5,3 km/h
27.10.2013 14,0 C 76 % 1011 hPa 2,1 l/m 6,7 km/h W-NW 9,7 C 12,6 C 8,9 km/h
28.10.2013 16,0 C 68 % 1006 hPa 0,0 l/m 10,4 km/h N 9,9 C 14,0 C 15,5 km/h
29.10.2013 9,7 C 76 % 1015 hPa 0,0 l/m 2,4 km/h W-NW 5,5 C 9,7 C 3,4 km/h
30.10.2013 6,0 C 75 % 1023 hPa 0,0 l/m 0,0 km/h W-NW 1,6 C 6,0 C 1,0 km/h
31.10.2013 4,5 C 80 % 1021 hPa 0,0 l/m 0,0 km/h N-NO 1,2 C 4,5 C 1,0 km/h
Min-Datum 31.10.13 03.10.13 28.10.13 12 Tage 02.10.13 - 31.10.13 03.10.13 02.10.13
Min-Zeit 06:50 14:50 13:00 - 03:10 - 06:50 09:50 03:10
Minimum -1,2 C 37 % 1003 hPa - 0,0 km/h - -3,7 C -3,3 C 1,0 km/h
Max-Datum 28.10.13 21.10.13 30.10.13 10.10.13 02.10.13 - 26.10.13 28.10.13 28.10.13
Max-Zeit 14:00 09:10 21:00 06:10 13:10 - 13:30 14:00 19:00
Maximum 21,6 C 86 % 1025 hPa 9,3 l/m 32,1 km/h
O
- 15,2 C 21,6 C 54,4 km/h
N
Durchschnitt 10,4 C 78 % 1015 hPa #45,6 l/m 3,0 km/h NO 6,6 C 10,0 C 4,6 km/h

Durchschnitt Minimum Temp.6,2 C
Durchschnitt Maximum Temp.15,2 C